AirNav   Duncan Aviation - Near you to keep you flying
 
 1587 users online  

VA66 Breeden Airport
Catlett, Virginia, USA

GOING TO CATLETT?


FAA INFORMATION EFFECTIVE 07 OCTOBER 2021

Location

FAA Identifier: VA66
Lat/Long: 38-36-27.4800N 077-34-09.9400W
38-36.458000N 077-34.165667W
38.6076333,-77.5694278
(estimated)
Elevation: 210 ft. / 64 m (estimated)
Variation: 10W (1995)
From city: 5 miles NW of CATLETT, VA
Time zone: UTC -4 (UTC -5 during Standard Time)
Zip code: 20119

Airport Operations

Airport use: Private use. Permission required prior to landing
Activation date: 09/1997
Control tower: no
ARTCC: WASHINGTON CENTER
FSS: LEESBURG FLIGHT SERVICE STATION
Attendance: UNATNDD
Segmented circle: no

Airport Communications

WX AWOS-3 at HWY (7 nm W): 120.350 (540-788-4078)
WX AWOS-3PT at HEF (7 nm N): PHONE 703-361-6160
WX AWOS-3 at RMN (14 nm SE): 126.325 (540-657-8283)
WX AWOS-3 at CJR (14 nm W): 119.325 (540-727-0523)

Nearby radio navigation aids

VOR radial/distance  VOR name  Freq  Var
CSNr104/14.0CASANOVA VORTAC116.3006W
BRVr337/19.2BROOKE VORTAC114.5009W
AMLr202/20.2ARMEL VOR/DME113.5008W
DCAr248/29.2WASHINGTON VOR/DME111.0009W
LDNr122/33.3LINDEN VORTAC114.3006W
ADWr260/35.0ANDREWS VORTAC113.1010W
OTTr271/39.1NOTTINGHAM VORTAC113.7010W

 
NDB name  Hdg/Dist  Freq  Var  ID
NAILR070/18.335110WMSQ -- ... --.-
SHANNON355/21.223710WEZF . --.. ..-.
DAVEE270/21.822309WDAA -.. .- .-
OXONN260/27.133211WDCA -.. -.-. .-
GEORGETOWN236/28.432309WGTN --. - -.

Airport Services

Runway Information

Runway 4/22

Dimensions: 1000 x 75 ft. / 305 x 23 m
Surface: turf
RUNWAY 4  RUNWAY 22
Traffic pattern: leftleft

Airport Ownership and Management from official FAA records

Ownership: Privately-owned
Owner: ROBT & KRYSTAL BREEDEN
PO BOX 212
CATLETT, VA 22019
Phone 540-788-4939
Manager: ROBERT BREEDEN
10329 HEDDINGS RD
CATLETT, VA 22019
Phone 540-788-4939

Airport Operational Statistics

Aircraft based on the field: 1
Single engine airplanes: 1
    

Additional Remarks

FOR CD CTC POTOMAC APCH AT 866-709-4993.

Instrument Procedures

There are no published instrument procedures at VA66.

Some nearby airports with instrument procedures:

KHWY - Warrenton-Fauquier Airport (7 nm W)
KHEF - Manassas Regional Airport/Harry P. Davis Field (7 nm N)
KRMN - Stafford Regional Airport (14 nm SE)
KNYG - Quantico Marine Corps Airfield / Turner Field (14 nm SE)
KCJR - Culpeper Regional Airport (14 nm W)
KDAA - Davison Army Airfield (19 nm E)
 
Loc | Ops | Rwys | IFR | FBO | Links
Com | Nav | Svcs | Stats | Notes
Area around VA66 (Breeden Airport)
 
Road maps at: MapQuest Bing Google
 
Aerial photo
No photo
 
Sectional chart

 
Airport distance calculator
Flying to Breeden Airport? Find the distance to fly.

From to VA66

Sunrise and sunset
Times for 19-Oct-2021
 Local
(UTC-4)
 Zulu
(UTC)
Morning civil twilight06:5810:58
Sunrise07:2411:24
Sunset18:2622:26
Evening civil twilight18:5322:53

Current date and time
Zulu (UTC)  19-Oct-2021 14:49:17
Local (UTC-4)  19-Oct-2021 10:49:17
 
METAR
KHWY 
7nm W 
191435Z AUTO 23005KT 10SM CLR 16/07 A3020 RMK AO2 T01610069
KHEF 
7nm N 
191356Z 00000KT 10SM CLR 12/08 A3020 RMK AO2 SLP232 T01220078
KRMN 
14nm SE 
191435Z AUTO 22004KT 10SM CLR 18/06 A3023 RMK AO2 T01760059
KNYG 
15nm SE 
191356Z 00000KT 10SM CLR 15/07 A3020 RMK AO2 SLP228 T01500067 $
KDAA 
20nm E 
191356Z AUTO 25003KT 10SM CLR 16/06 A3018 RMK AO2 SLP223 T01560060 $
TAF
KNYG 
15nm SE 
1909/2009 30006KT 9999 SKC QNH3007INS FM200100 32006KT 9999 SKC QNH3008INS T06/1911Z T21/1920Z
KDAA 
20nm E 
191200Z 1912/2018 VRB06KT 9999 FEW250 510104 QNH3009INS BECMG 1914/1915 25010KT 9999 FEW050 SCT250 510104 QNH3006INS BECMG 1922/1923 24006KT 9999 SKC QNH3010INS BECMG 2010/2011 27009KT 9999 FEW250 QNH3007INS TX22/1920Z TN08/2009Z
NOTAMs
Click for the latest NOTAMs
NOTAMs are issued by the DoD/FAA and will open in a separate window not controlled by AirNav.

 

 
 

Would you like to see your business listed on this page?

 If your business provides an interesting product or service to pilots, flight crews, aircraft, or users of the Breeden Airport, you should consider listing it here.  To start the listing process, click on the button below
 
Add a business
 

Other Pages about Breeden Airport

Update a link
 
Copyright © AirNav, LLC. All rights reserved. Privacy Policy  Contact